Time;durP1;ratioP1;P1;durP2;ratioP2;P2;SDS_P1;SDS_P2;PMS_P1;PMS_P2;Temp;Humidity;BMP_temperature;BMP_pressure;BME280_temperature;BME280_humidity;BME280_pressure;Samples;Min_cycle;Max_cycle;Signal;HPM_P1;HPM_P2
2021/11/09 00:01:49;;;;;;;;;;;;;;;8.74;88.75;100897.38;1637183;86;20157;-76
2021/11/09 00:04:07;;;;;;;;;;;;;;;8.69;88.56;100897.75;1629876;86;20205;-78
2021/11/09 00:06:46;;;;;;;;;;;;;;;8.58;88.98;100895.99;1637891;86;20376;-78
2021/11/09 00:09:55;;;;;;;;;;;;;;;8.56;88.77;100892.66;1633089;86;20604;-78
2021/11/09 00:11:34;;;;;;;;;;;;;;;8.53;88.62;100896.86;1623041;87;20501;-79
2021/11/09 00:14:01;;;;;;;;;;;;;;;8.46;88.47;100896.98;1636875;86;20197;-78
2021/11/09 00:16:27;;;;;;;;;;;;;;;8.45;89.34;100893.98;1638952;86;20199;-79
2021/11/09 00:18:53;;;;;;;;;;;;;;;8.51;89.23;100891.34;1630697;86;20211;-77
2021/11/09 00:21:19;;;;;;;;;;;;;;;8.50;89.58;100905.00;1633594;86;20793;-78
2021/11/09 00:23:46;;;;;;;;;;;;;;;8.50;88.92;100908.95;1617315;86;21130;-80
2021/11/09 00:26:13;;;;;;;;;;;;;;;8.49;89.32;100920.42;1641432;86;20537;-80
2021/11/09 00:28:39;;;;;;;;;;;;;;;8.44;89.71;100921.28;1638242;86;20222;-78
2021/11/09 00:31:04;;;;;;;;;;;;;;;8.47;89.50;100927.63;1640957;86;20697;-81
2021/11/09 00:33:30;;;;;;;;;;;;;;;8.39;89.57;100933.47;1634698;86;20430;-81
2021/11/09 00:35:56;;;;;;;;;;;;;;;8.52;88.77;100925.94;1635597;85;21175;-81
2021/11/09 00:38:22;;;;;;;;;;;;;;;8.59;88.06;100938.48;1638626;86;20230;-77
2021/11/09 00:40:47;;;;;;;;;;;;;;;8.67;87.61;100931.73;1636478;86;20334;-77
2021/11/09 00:43:16;;;;;;;;;;;;;;;8.69;87.35;100941.69;1637603;86;20186;-77
2021/11/09 00:45:42;;;;;;;;;;;;;;;8.67;87.46;100946.22;1634093;86;20176;-77
2021/11/09 00:48:08;;;;;;;;;;;;;;;8.68;87.02;100938.69;1637828;86;23251;-77
2021/11/09 00:50:34;;;;;;;;;;;;;;;8.73;86.84;100937.83;1632952;86;20206;-78
2021/11/09 00:53:00;;;;;;;;;;;;;;;8.70;86.46;100940.70;1638933;86;20231;-78
2021/11/09 00:55:26;;;;;;;;;;;;;;;8.73;86.44;100940.46;1636485;86;20768;-78
2021/11/09 00:57:52;;;;;;;;;;;;;;;8.69;86.43;100946.95;1635642;86;20231;-78
2021/11/09 01:00:24;;;;;;;;;;;;;;;8.63;85.74;100955.69;1642172;85;21106;-77
2021/11/09 01:02:49;;;;;;;;;;;;;;;8.62;86.88;100960.61;1635052;86;20556;-78
2021/11/09 01:05:20;;;;;;;;;;;;;;;8.56;86.59;100966.38;1636376;86;20846;-77
2021/11/09 01:07:43;;;;;;;;;;;;;;;8.49;86.49;100964.35;1635891;86;20216;-80
2021/11/09 01:10:09;;;;;;;;;;;;;;;8.49;86.52;100969.62;1636265;86;20982;-78
2021/11/09 01:12:34;;;;;;;;;;;;;;;8.44;86.78;100972.61;1599723;88;21989;-77
2021/11/09 01:15:00;;;;;;;;;;;;;;;8.25;87.61;100963.51;1620580;86;20157;-80
2021/11/09 01:17:26;;;;;;;;;;;;;;;8.14;87.71;100967.47;1656258;85;20203;-78
2021/11/09 01:19:52;;;;;;;;;;;;;;;8.15;87.29;100971.75;1660456;85;20195;-80
2021/11/09 01:22:17;;;;;;;;;;;;;;;8.18;87.81;100980.72;1655380;85;21110;-78
2021/11/09 01:24:43;;;;;;;;;;;;;;;8.15;88.11;100975.70;1654886;85;21109;-80
2021/11/09 01:27:09;;;;;;;;;;;;;;;8.03;88.05;100975.34;1658605;85;20144;-80
2021/11/09 01:29:34;;;;;;;;;;;;;;;7.97;87.72;100975.36;1657267;85;20172;-80
2021/11/09 01:32:00;;;;;;;;;;;;;;;7.99;87.84;100976.06;1654601;85;20465;-77
2021/11/09 01:34:26;;;;;;;;;;;;;;;7.94;87.86;100975.59;1654711;85;20240;-78
2021/11/09 01:36:53;;;;;;;;;;;;;;;7.95;87.74;100980.37;1650307;85;21202;-77
2021/11/09 01:39:18;;;;;;;;;;;;;;;7.93;88.39;100975.71;1659240;85;20207;-78
2021/11/09 01:41:44;;;;;;;;;;;;;;;7.97;88.05;100982.39;1659526;85;20174;-78
2021/11/09 01:44:10;;;;;;;;;;;;;;;7.81;87.80;100983.57;1659568;85;20191;-77
2021/11/09 01:46:35;;;;;;;;;;;;;;;7.89;88.31;100986.92;1654934;85;21111;-78
2021/11/09 01:49:01;;;;;;;;;;;;;;;7.74;88.32;100988.95;1655638;85;21343;-79
2021/11/09 01:51:27;;;;;;;;;;;;;;;7.80;88.84;100989.80;1655562;85;20225;-77
2021/11/09 01:53:53;;;;;;;;;;;;;;;7.72;88.28;100989.53;1652524;85;20512;-79
2021/11/09 01:56:21;;;;;;;;;;;;;;;7.66;88.10;100989.54;1657912;85;20207;-77
2021/11/09 01:58:47;;;;;;;;;;;;;;;7.77;87.36;100999.23;1651721;85;20151;-80
2021/11/09 02:01:15;;;;;;;;;;;;;;;7.78;87.99;100993.01;1652866;85;21180;-77
2021/11/09 02:03:43;;;;;;;;;;;;;;;7.77;88.08;100997.92;1653219;85;20171;-77
2021/11/09 02:06:10;;;;;;;;;;;;;;;7.73;87.63;100993.84;1656068;85;20172;-77
2021/11/09 02:08:36;;;;;;;;;;;;;;;7.61;87.84;101000.03;1657770;85;20201;-81
2021/11/09 02:11:01;;;;;;;;;;;;;;;7.62;87.98;100999.09;1654000;85;20189;-78
2021/11/09 02:13:27;;;;;;;;;;;;;;;7.63;88.19;101003.37;1656625;85;21054;-77
2021/11/09 02:15:52;;;;;;;;;;;;;;;7.59;88.52;101007.20;1656221;85;20202;-79
2021/11/09 02:18:18;;;;;;;;;;;;;;;7.62;88.37;101009.60;1660095;85;20727;-78
2021/11/09 02:21:09;;;;;;;;;;;;;;;7.59;88.29;101019.03;1656215;85;20237;-79
2021/11/09 02:23:35;;;;;;;;;;;;;;;7.52;89.35;101019.48;1650954;85;20139;-79
2021/11/09 02:26:01;;;;;;;;;;;;;;;7.45;88.81;101022.20;1650093;85;21090;-78
2021/11/09 02:28:26;;;;;;;;;;;;;;;7.42;88.69;101025.06;1652719;85;20212;-82
2021/11/09 02:30:52;;;;;;;;;;;;;;;7.31;89.25;101033.73;1652021;85;20462;-80
2021/11/09 02:33:18;;;;;;;;;;;;;;;7.31;89.65;101036.36;1655302;85;20174;-80
2021/11/09 02:35:43;;;;;;;;;;;;;;;7.30;89.78;101034.71;1652487;85;20569;-81
2021/11/09 02:38:09;;;;;;;;;;;;;;;7.29;89.94;101038.77;1655621;85;20555;-82
2021/11/09 02:40:35;;;;;;;;;;;;;;;7.24;89.96;101040.87;1655892;85;20185;-79
2021/11/09 02:43:03;;;;;;;;;;;;;;;7.22;90.22;101044.09;1654191;85;20435;-79
2021/11/09 02:45:49;;;;;;;;;;;;;;;7.08;90.70;101048.55;1656106;85;20201;-79
2021/11/09 02:48:15;;;;;;;;;;;;;;;7.04;91.27;101057.63;1654921;85;20153;-79
2021/11/09 02:50:42;;;;;;;;;;;;;;;7.09;91.04;101057.29;1654483;84;20207;-81
2021/11/09 02:53:13;;;;;;;;;;;;;;;7.07;90.56;101061.34;1651834;85;20170;-80
2021/11/09 02:55:37;;;;;;;;;;;;;;;7.16;90.17;101066.38;1655581;85;20573;-80
2021/11/09 03:00:37;;;;;;;;;;;;;;;7.13;90.04;101075.34;1653552;85;20385;-78
2021/11/09 03:05:42;;;;;;;;;;;;;;;7.09;89.75;101081.75;1657748;85;20173;-81
2021/11/09 03:08:05;;;;;;;;;;;;;;;7.18;88.87;101082.41;1651744;85;20167;-77
2021/11/09 03:10:32;;;;;;;;;;;;;;;7.21;89.03;101081.81;1658876;85;20135;-79
2021/11/09 03:12:55;;;;;;;;;;;;;;;7.23;88.58;101091.75;1652666;85;20507;-78
2021/11/09 03:15:25;;;;;;;;;;;;;;;7.14;88.23;101093.24;1650499;85;21340;-79
2021/11/09 03:17:56;;;;;;;;;;;;;;;7.11;88.01;101097.41;1646935;85;20108;-81
2021/11/09 03:20:24;;;;;;;;;;;;;;;7.07;87.55;101098.11;1645016;86;20232;-78
2021/11/09 03:44:53;;;;;;;;;;;;;;;6.61;87.42;101140.72;1647711;85;20522;-78
2021/11/09 03:47:16;;;;;;;;;;;;;;;6.40;87.55;101145.19;1652109;85;20542;-78
2021/11/09 03:49:42;;;;;;;;;;;;;;;6.41;88.06;101145.54;1648699;85;20158;-78
2021/11/09 03:52:13;;;;;;;;;;;;;;;6.36;88.08;101147.64;1645644;85;20154;-78
2021/11/09 03:54:38;;;;;;;;;;;;;;;6.31;87.66;101145.81;1646780;85;20154;-78
2021/11/09 04:02:25;;;;;;;;;;;;;;;6.18;88.36;101158.06;1645185;85;20158;-78
2021/11/09 04:07:21;;;;;;;;;;;;;;;6.08;88.63;101160.47;1644221;86;20536;-78
2021/11/09 04:15:11;;;;;;;;;;;;;;;6.03;88.75;101163.39;1634838;86;21027;-81
2021/11/09 04:17:41;;;;;;;;;;;;;;;5.96;87.96;101176.50;1629588;85;20318;-78
2021/11/09 04:27:47;;;;;;;;;;;;;;;5.90;88.09;101187.39;1629444;86;20340;-78
2021/11/09 04:30:24;;;;;;;;;;;;;;;5.69;88.63;101186.53;1627316;86;20548;-79
2021/11/09 05:10:22;;;;;;;;;;;;;;;5.25;90.05;101241.73;1631572;85;20158;-81
2021/11/09 05:12:19;;;;;;;;;;;;;;;5.23;90.07;101249.68;1622406;86;20489;-78
2021/11/09 05:14:44;;;;;;;;;;;;;;;5.23;90.35;101255.39;1631560;85;20819;-78
2021/11/09 05:17:10;;;;;;;;;;;;;;;5.25;90.05;101262.23;1636841;86;20167;-79
2021/11/09 05:19:35;;;;;;;;;;;;;;;5.14;89.65;101264.64;1637740;86;20125;-78
2021/11/09 05:22:01;;;;;;;;;;;;;;;5.21;89.78;101269.89;1639490;86;20214;-78
2021/11/09 05:24:27;;;;;;;;;;;;;;;5.20;89.61;101274.75;1637085;86;21248;-78
2021/11/09 05:26:52;;;;;;;;;;;;;;;5.21;89.33;101275.96;1632406;86;20215;-78
2021/11/09 05:29:18;;;;;;;;;;;;;;;5.08;89.79;101284.66;1634068;86;20170;-77
2021/11/09 05:31:43;;;;;;;;;;;;;;;5.07;89.64;101289.05;1632719;86;20127;-80
2021/11/09 05:34:10;;;;;;;;;;;;;;;5.09;89.74;101292.89;1633850;86;20204;-78
2021/11/09 05:36:38;;;;;;;;;;;;;;;5.02;89.96;101295.88;1634793;86;22026;-78
2021/11/09 05:39:17;;;;;;;;;;;;;;;4.71;90.48;101299.92;1637019;86;20323;-78
2021/11/09 05:41:39;;;;;;;;;;;;;;;4.76;91.01;101301.82;1628370;86;20170;-78
2021/11/09 05:44:06;;;;;;;;;;;;;;;4.87;90.85;101307.25;1635658;86;20208;-80
2021/11/09 05:46:34;;;;;;;;;;;;;;;4.85;90.81;101315.67;1635863;86;20201;-81
2021/11/09 05:48:59;;;;;;;;;;;;;;;4.79;91.20;101316.03;1633959;85;21958;-81
2021/11/09 05:51:25;;;;;;;;;;;;;;;4.81;91.47;101313.69;1629521;86;20197;-77
2021/11/09 05:53:51;;;;;;;;;;;;;;;4.85;90.94;101314.37;1628788;86;20217;-85
2021/11/09 05:56:16;;;;;;;;;;;;;;;4.84;90.89;101325.76;1632581;86;20174;-81
2021/11/09 05:58:42;;;;;;;;;;;;;;;4.86;90.80;101329.11;1631073;86;20206;-84
2021/11/09 06:01:09;;;;;;;;;;;;;;;4.95;90.94;101336.42;1632895;86;21110;-79
2021/11/09 06:03:35;;;;;;;;;;;;;;;4.65;90.72;101342.52;1631067;86;20279;-83
2021/11/09 06:06:00;;;;;;;;;;;;;;;4.57;91.05;101346.05;1633485;86;20145;-82
2021/11/09 06:08:26;;;;;;;;;;;;;;;4.57;91.48;101357.83;1631657;86;20153;-83
2021/11/09 06:10:51;;;;;;;;;;;;;;;4.23;92.53;101364.95;1633241;86;20652;-81
2021/11/09 06:13:17;;;;;;;;;;;;;;;4.11;93.34;101368.24;1634998;86;21726;-82
2021/11/09 06:15:43;;;;;;;;;;;;;;;3.98;94.24;101368.52;1633445;84;20167;-81
2021/11/09 06:18:08;;;;;;;;;;;;;;;3.92;94.52;101371.02;1637724;86;20591;-78
2021/11/09 06:20:34;;;;;;;;;;;;;;;4.06;94.51;101379.42;1638938;86;20156;-80
2021/11/09 06:23:00;;;;;;;;;;;;;;;4.25;94.05;101384.48;1640233;86;20254;-80
2021/11/09 06:25:25;;;;;;;;;;;;;;;4.30;93.07;101392.45;1642360;86;21089;-83
2021/11/09 06:27:51;;;;;;;;;;;;;;;4.15;92.98;101397.22;1636368;86;20533;-79
2021/11/09 06:30:17;;;;;;;;;;;;;;;4.26;93.31;101400.08;1640247;86;20199;-79
2021/11/09 06:32:43;;;;;;;;;;;;;;;4.19;93.25;101409.17;1641858;86;20198;-79
2021/11/09 06:35:08;;;;;;;;;;;;;;;4.29;93.30;101414.77;1638460;86;20730;-79
2021/11/09 06:37:35;;;;;;;;;;;;;;;4.13;93.56;101417.34;1636494;86;21162;-80
2021/11/09 06:40:01;;;;;;;;;;;;;;;4.02;94.18;101418.40;1636320;85;20196;-81
2021/11/09 06:42:27;;;;;;;;;;;;;;;3.99;94.17;101430.33;1639269;86;20108;-79
2021/11/09 06:44:52;;;;;;;;;;;;;;;3.88;94.52;101431.73;1641587;85;20205;-80
2021/11/09 06:47:18;;;;;;;;;;;;;;;3.92;94.56;101441.11;1640521;86;20157;-80
2021/11/09 06:49:44;;;;;;;;;;;;;;;3.86;94.05;101442.73;1642932;85;22099;-77
2021/11/09 06:52:10;;;;;;;;;;;;;;;3.76;94.76;101449.39;1637362;85;20131;-76
2021/11/09 06:54:36;;;;;;;;;;;;;;;3.78;95.24;101457.98;1636058;85;20298;-79
2021/11/09 06:57:03;;;;;;;;;;;;;;;3.77;95.53;101468.03;1640722;86;20228;-78
2021/11/09 06:59:29;;;;;;;;;;;;;;;3.85;95.20;101475.48;1637993;85;21008;-78
2021/11/09 07:01:55;;;;;;;;;;;;;;;4.02;94.65;101487.20;1636680;86;21128;-79
2021/11/09 07:04:21;;;;;;;;;;;;;;;3.99;94.00;101485.21;1636277;86;20804;-78
2021/11/09 07:06:46;;;;;;;;;;;;;;;3.91;93.61;101496.06;1637079;86;20136;-80
2021/11/09 07:09:13;;;;;;;;;;;;;;;3.84;93.94;101502.52;1632687;86;20541;-80
2021/11/09 07:11:39;;;;;;;;;;;;;;;4.01;93.92;101504.27;1638753;86;21073;-78
2021/11/09 07:14:05;;;;;;;;;;;;;;;4.14;93.56;101508.77;1632194;86;21103;-84
2021/11/09 07:16:31;;;;;;;;;;;;;;;4.06;92.46;101516.66;1636457;85;20204;-80
2021/11/09 07:19:02;;;;;;;;;;;;;;;4.08;94.31;101523.94;1641497;85;20173;-79
2021/11/09 07:21:27;;;;;;;;;;;;;;;4.17;93.79;101523.45;1636674;86;20141;-77
2021/11/09 07:23:53;;;;;;;;;;;;;;;3.84;93.86;101532.58;1637631;85;20199;-78
2021/11/09 07:26:21;;;;;;;;;;;;;;;3.62;94.21;101534.13;1647126;85;21148;-77
2021/11/09 07:28:46;;;;;;;;;;;;;;;3.72;95.27;101532.75;1644039;85;20290;-81
2021/11/09 07:31:15;;;;;;;;;;;;;;;3.65;95.78;101532.67;1638928;85;20215;-79
2021/11/09 07:33:39;;;;;;;;;;;;;;;3.73;96.51;101540.52;1640387;86;20167;-80
2021/11/09 07:36:05;;;;;;;;;;;;;;;3.89;96.02;101543.19;1639759;86;20280;-76
2021/11/09 07:38:31;;;;;;;;;;;;;;;3.86;95.66;101548.56;1644206;85;21120;-76
2021/11/09 07:40:57;;;;;;;;;;;;;;;3.94;95.40;101556.85;1639362;86;20970;-78
2021/11/09 07:43:23;;;;;;;;;;;;;;;3.85;95.58;101563.02;1638873;85;20188;-76
2021/11/09 07:45:48;;;;;;;;;;;;;;;4.03;95.30;101573.01;1641254;85;20158;-78
2021/11/09 07:48:14;;;;;;;;;;;;;;;4.14;95.44;101575.91;1637348;85;20232;-77
2021/11/09 07:50:40;;;;;;;;;;;;;;;4.30;94.99;101584.66;1645162;86;21253;-77
2021/11/09 07:53:08;;;;;;;;;;;;;;;4.27;94.77;101592.66;1639088;86;20214;-79
2021/11/09 07:55:39;;;;;;;;;;;;;;;4.09;94.17;101597.05;1640241;85;20137;-77
2021/11/09 07:58:06;;;;;;;;;;;;;;;3.88;94.84;101598.98;1638152;85;20141;-78
2021/11/09 08:00:39;;;;;;;;;;;;;;;3.93;95.51;101594.38;1640959;86;20110;-76
2021/11/09 08:05:44;;;;;;;;;;;;;;;3.77;96.12;101602.59;1641908;85;20151;-79
2021/11/09 08:08:13;;;;;;;;;;;;;;;3.94;96.30;101609.13;1636682;86;20886;-77
2021/11/09 08:10:33;;;;;;;;;;;;;;;4.18;95.96;101611.44;1643143;85;20472;-76
2021/11/09 08:12:59;;;;;;;;;;;;;;;4.22;95.20;101619.48;1636993;85;20228;-77
2021/11/09 08:15:25;;;;;;;;;;;;;;;4.34;94.83;101615.88;1639121;85;21163;-77
2021/11/09 08:17:50;;;;;;;;;;;;;;;4.28;94.45;101613.94;1644758;85;20795;-77
2021/11/09 08:20:16;;;;;;;;;;;;;;;4.43;94.77;101625.39;1647021;85;20256;-77
2021/11/09 08:22:42;;;;;;;;;;;;;;;4.44;93.26;101632.77;1645792;85;20105;-78
2021/11/09 08:25:07;;;;;;;;;;;;;;;4.39;93.01;101625.63;1646667;85;20206;-78
2021/11/09 08:27:33;;;;;;;;;;;;;;;4.58;93.41;101627.65;1649005;85;21205;-79
2021/11/09 08:29:59;;;;;;;;;;;;;;;4.67;92.92;101629.78;1653622;85;20133;-76
2021/11/09 08:32:26;;;;;;;;;;;;;;;4.54;92.98;101633.98;1650316;85;20153;-78
2021/11/09 08:34:52;;;;;;;;;;;;;;;4.51;93.41;101632.84;1650249;85;20149;-77
2021/11/09 08:37:19;;;;;;;;;;;;;;;4.71;93.06;101634.85;1651530;85;20362;-79
2021/11/09 08:39:45;;;;;;;;;;;;;;;4.60;92.76;101649.80;1646385;85;21220;-79
2021/11/09 08:42:30;;;;;;;;;;;;;;;4.43;92.70;101654.63;1645416;85;20216;-79
2021/11/09 08:45:02;;;;;;;;;;;;;;;4.29;93.09;101652.73;1644693;85;20082;-76
2021/11/09 08:47:21;;;;;;;;;;;;;;;4.43;93.23;101662.48;1646835;85;20145;-77
2021/11/09 08:49:46;;;;;;;;;;;;;;;4.22;93.02;101667.02;1651004;85;20979;-79
2021/11/09 08:52:14;;;;;;;;;;;;;;;4.16;93.85;101660.33;1645229;85;21348;-79
2021/11/09 08:54:52;;;;;;;;;;;;;;;4.43;93.55;101663.79;1644860;85;20222;-80
2021/11/09 08:57:21;;;;;;;;;;;;;;;4.45;93.47;101673.70;1645138;86;21031;-77
2021/11/09 09:04:59;;;;;;;;;;;;;;;4.57;92.31;101679.61;1647707;85;20133;-77
2021/11/09 09:07:25;;;;;;;;;;;;;;;4.81;92.19;101681.86;1647973;85;20561;-77
2021/11/09 09:09:53;;;;;;;;;;;;;;;4.93;91.38;101673.36;1644707;86;20606;-77
2021/11/09 09:12:20;;;;;;;;;;;;;;;5.00;91.29;101676.05;1644523;85;20841;-76
2021/11/09 09:14:46;;;;;;;;;;;;;;;4.98;91.00;101680.50;1645259;85;20176;-75
2021/11/09 09:17:11;;;;;;;;;;;;;;;5.14;90.55;101683.60;1643976;84;21445;-77
2021/11/09 09:19:42;;;;;;;;;;;;;;;5.12;90.36;101684.16;1649482;85;20172;-77
2021/11/09 09:22:14;;;;;;;;;;;;;;;4.82;89.18;101694.03;1642637;85;20192;-81
2021/11/09 09:24:47;;;;;;;;;;;;;;;4.78;89.84;101691.19;1643038;86;21062;-78
2021/11/09 09:27:34;;;;;;;;;;;;;;;4.85;90.52;101699.11;1648208;86;20090;-81
2021/11/09 09:33:12;;;;;;;;;;;;;;;4.72;90.44;101704.59;1643140;85;20180;-79
2021/11/09 09:57:12;;;;;;;;;;;;;;;5.30;88.81;101734.68;1650916;85;20176;-77
2021/11/09 09:59:39;;;;;;;;;;;;;;;5.21;88.66;101744.73;1643387;85;20133;-79
2021/11/09 10:02:22;;;;;;;;;;;;;;;5.21;88.63;101746.52;1651613;85;20171;-75
2021/11/09 10:04:49;;;;;;;;;;;;;;;5.34;88.74;101750.15;1640679;85;20523;-80
2021/11/09 10:07:30;;;;;;;;;;;;;;;5.48;88.44;101745.95;1645693;86;20141;-77
2021/11/09 10:09:56;;;;;;;;;;;;;;;5.40;86.93;101755.06;1648877;85;21279;-76
2021/11/09 10:12:33;;;;;;;;;;;;;;;5.31;87.20;101763.41;1646519;85;20317;-76
2021/11/09 10:15:02;;;;;;;;;;;;;;;5.34;87.62;101763.25;1650164;85;20183;-77
2021/11/09 10:17:28;;;;;;;;;;;;;;;5.27;86.90;101767.14;1628793;85;20147;-78
2021/11/09 10:19:54;;;;;;;;;;;;;;;5.43;87.06;101761.08;1626968;86;20192;-77
2021/11/09 10:22:30;;;;;;;;;;;;;;;5.44;87.19;101756.20;1629389;86;21186;-75
2021/11/09 10:25:02;;;;;;;;;;;;;;;5.49;87.05;101764.69;1621913;87;20500;-81
2021/11/09 10:27:30;;;;;;;;;;;;;;;5.55;86.71;101767.80;1624047;86;20630;-79
2021/11/09 10:29:56;;;;;;;;;;;;;;;5.56;86.70;101765.58;1623387;86;20822;-78
2021/11/09 10:32:27;;;;;;;;;;;;;;;5.42;85.86;101771.17;1627860;86;20136;-77
2021/11/09 10:34:53;;;;;;;;;;;;;;;5.38;86.58;101772.64;1624927;86;21237;-77
2021/11/09 10:37:27;;;;;;;;;;;;;;;5.39;87.26;101763.87;1625666;87;20246;-81
2021/11/09 10:39:56;;;;;;;;;;;;;;;5.48;87.03;101774.77;1601073;87;33069;-78
2021/11/09 10:42:24;;;;;;;;;;;;;;;5.57;86.27;101770.34;1626596;86;20134;-80
2021/11/09 10:44:54;;;;;;;;;;;;;;;5.48;86.70;101778.70;1624749;87;20558;-78
2021/11/09 10:47:28;;;;;;;;;;;;;;;5.60;86.45;101767.55;1623164;86;22063;-80
2021/11/09 10:50:00;;;;;;;;;;;;;;;5.66;86.10;101768.53;1625756;86;20492;-78
2021/11/09 10:52:35;;;;;;;;;;;;;;;5.69;85.28;101773.60;1628682;86;20172;-78
2021/11/09 10:55:21;;;;;;;;;;;;;;;5.75;85.39;101774.58;1627778;86;21053;-77
2021/11/09 11:03:38;;;;;;;;;;;;;;;5.85;85.46;101776.21;1629479;86;20142;-79
2021/11/09 11:06:16;;;;;;;;;;;;;;;5.91;85.32;101782.91;1628387;86;20114;-79
2021/11/09 11:08:41;;;;;;;;;;;;;;;6.10;85.01;101786.20;1630741;86;20208;-77
2021/11/09 11:11:25;;;;;;;;;;;;;;;6.00;84.40;101781.11;1627625;86;20759;-79
2021/11/09 11:13:52;;;;;;;;;;;;;;;6.03;84.30;101780.94;1627825;86;21219;-79
2021/11/09 11:16:19;;;;;;;;;;;;;;;6.19;84.48;101787.94;1632387;85;20568;-76
2021/11/09 11:18:51;;;;;;;;;;;;;;;6.20;84.13;101783.05;1649148;85;20105;-79
2021/11/09 11:21:16;;;;;;;;;;;;;;;6.35;83.99;101782.18;1646131;85;20163;-77
2021/11/09 11:23:44;;;;;;;;;;;;;;;6.45;83.81;101788.59;1640306;85;20165;-78
2021/11/09 11:26:09;;;;;;;;;;;;;;;6.38;83.37;101788.56;1641696;85;21127;-78
2021/11/09 11:28:37;;;;;;;;;;;;;;;6.38;82.90;101789.87;1650747;85;20204;-83
2021/11/09 11:31:03;;;;;;;;;;;;;;;6.38;82.77;101792.98;1650864;85;20163;-78
2021/11/09 11:33:29;;;;;;;;;;;;;;;6.29;81.95;101785.16;1645223;86;20277;-77
2021/11/09 11:35:54;;;;;;;;;;;;;;;6.17;82.07;101799.83;1649015;86;20240;-77
2021/11/09 11:38:20;;;;;;;;;;;;;;;6.20;82.34;101806.66;1648907;85;21187;-79
2021/11/09 11:40:48;;;;;;;;;;;;;;;6.14;82.15;101801.77;1643516;85;20302;-80
2021/11/09 11:43:14;;;;;;;;;;;;;;;6.30;82.62;101811.78;1641460;85;20217;-78
2021/11/09 11:45:46;;;;;;;;;;;;;;;6.04;82.69;101811.45;1621733;86;20178;-76
2021/11/09 11:48:12;;;;;;;;;;;;;;;6.15;82.67;101815.27;1644855;85;20197;-78
2021/11/09 11:50:41;;;;;;;;;;;;;;;6.15;82.61;101812.16;1652606;85;21170;-79
2021/11/09 11:53:06;;;;;;;;;;;;;;;6.20;82.34;101813.22;1644649;86;20163;-79
2021/11/09 11:55:32;;;;;;;;;;;;;;;6.36;82.05;101819.30;1629734;86;20712;-77
2021/11/09 11:58:11;;;;;;;;;;;;;;;6.30;81.95;101810.47;1626627;86;20185;-78
2021/11/09 12:00:59;;;;;;;;;;;;;;;6.30;82.37;101818.34;1625651;87;20200;-80
2021/11/09 12:03:27;;;;;;;;;;;;;;;6.44;82.58;101814.45;1629739;86;20182;-78
2021/11/09 12:05:55;;;;;;;;;;;;;;;6.46;82.30;101820.92;1628533;86;20134;-78
2021/11/09 12:08:40;;;;;;;;;;;;;;;6.40;82.22;101822.14;1584181;89;20206;-79
2021/11/09 12:11:07;;;;;;;;;;;;;;;6.38;82.29;101816.59;1605342;87;20223;-81
2021/11/09 12:13:55;;;;;;;;;;;;;;;6.37;82.28;101819.69;1593729;88;20649;-79
2021/11/09 12:16:45;;;;;;;;;;;;;;;6.42;81.83;101814.18;1630574;86;21232;-80
2021/11/09 12:19:40;;;;;;;;;;;;;;;6.35;82.02;101809.73;1613592;87;20189;-80
2021/11/09 12:22:08;;;;;;;;;;;;;;;6.40;81.87;101806.39;1626071;86;20266;-78
2021/11/09 12:24:53;;;;;;;;;;;;;;;6.35;81.53;101812.83;1627027;87;20214;-77
2021/11/09 12:27:20;;;;;;;;;;;;;;;6.42;81.19;101820.27;1628793;86;20191;-80
2021/11/09 12:29:52;;;;;;;;;;;;;;;6.49;80.89;101827.78;1629362;86;21182;-79
2021/11/09 12:32:24;;;;;;;;;;;;;;;6.60;80.89;101820.13;1634643;86;20203;-80
2021/11/09 12:35:05;;;;;;;;;;;;;;;6.56;80.48;101827.34;1631327;86;20180;-76
2021/11/09 12:37:38;;;;;;;;;;;;;;;6.56;80.48;101830.45;1634064;86;20210;-77
2021/11/09 12:40:27;;;;;;;;;;;;;;;6.59;80.56;101830.27;1624981;86;20184;-79
2021/11/09 12:43:09;;;;;;;;;;;;;;;6.47;79.95;101827.39;1628616;86;21335;-78
2021/11/09 12:45:37;;;;;;;;;;;;;;;6.50;80.74;101830.33;1628872;86;20145;-78
2021/11/09 12:48:04;;;;;;;;;;;;;;;6.62;80.61;101835.34;1630666;86;20142;-78
2021/11/09 12:50:30;;;;;;;;;;;;;;;6.46;80.17;101842.78;1627940;86;20212;-78
2021/11/09 12:53:09;;;;;;;;;;;;;;;6.41;80.70;101843.48;1630168;86;20165;-78
2021/11/09 12:55:37;;;;;;;;;;;;;;;6.45;80.96;101845.02;1628720;86;21168;-81
2021/11/09 12:58:25;;;;;;;;;;;;;;;6.47;81.17;101847.08;1628231;86;20602;-78
2021/11/09 13:01:24;;;;;;;;;;;;;;;6.39;80.61;101845.84;1629588;86;20218;-76
2021/11/09 13:03:58;;;;;;;;;;;;;;;6.33;80.77;101846.19;1627386;86;20333;-77
2021/11/09 13:06:35;;;;;;;;;;;;;;;6.34;80.38;101850.03;1601601;88;20189;-77
2021/11/09 13:09:09;;;;;;;;;;;;;;;6.41;80.33;101855.30;1595422;88;20431;-80
2021/11/09 13:11:33;;;;;;;;;;;;;;;6.43;80.31;101853.90;1602543;88;20531;-76
2021/11/09 13:14:03;;;;;;;;;;;;;;;6.41;80.03;101852.67;1600594;88;20167;-78
2021/11/09 13:16:29;;;;;;;;;;;;;;;6.39;79.95;101845.36;1605658;88;20194;-76
2021/11/09 13:19:05;;;;;;;;;;;;;;;6.47;79.77;101843.62;1601174;88;20609;-77
2021/11/09 13:21:32;;;;;;;;;;;;;;;6.47;79.77;101844.45;1602966;88;21046;-81
2021/11/09 13:23:57;;;;;;;;;;;;;;;6.37;79.43;101838.06;1602801;88;20159;-79
2021/11/09 13:26:23;;;;;;;;;;;;;;;6.35;79.74;101834.66;1614216;87;20151;-78
2021/11/09 13:28:48;;;;;;;;;;;;;;;6.45;80.12;101838.94;1611810;87;20137;-78
2021/11/09 13:31:15;;;;;;;;;;;;;;;6.43;79.49;101837.70;1585641;88;20184;-78
2021/11/09 13:33:42;;;;;;;;;;;;;;;6.41;79.45;101836.93;1607533;87;21140;-78
2021/11/09 13:36:08;;;;;;;;;;;;;;;6.42;79.40;101833.38;1608401;86;20194;-76
2021/11/09 13:38:41;;;;;;;;;;;;;;;6.43;79.46;101834.22;1626941;86;20211;-77
2021/11/09 13:41:15;;;;;;;;;;;;;;;6.44;79.48;101834.13;1629726;86;20784;-79
2021/11/09 13:43:50;;;;;;;;;;;;;;;6.46;79.74;101830.98;1626985;86;20226;-82
2021/11/09 13:46:24;;;;;;;;;;;;;;;6.53;79.46;101831.94;1630585;86;20996;-79
2021/11/09 13:48:52;;;;;;;;;;;;;;;6.59;79.33;101830.27;1630475;86;20203;-79
2021/11/09 13:51:25;;;;;;;;;;;;;;;6.60;79.43;101831.94;1630553;86;20274;-78
2021/11/09 13:53:52;;;;;;;;;;;;;;;6.67;79.49;101837.23;1629542;86;20142;-81
2021/11/09 13:56:25;;;;;;;;;;;;;;;6.69;79.20;101843.22;1633500;86;20552;-78
2021/11/09 13:59:07;;;;;;;;;;;;;;;6.54;79.48;101849.35;1631835;86;20183;-80
2021/11/09 14:09:53;;;;;;;;;;;;;;;6.55;78.66;101851.89;1630462;86;20198;-77
2021/11/09 14:12:23;;;;;;;;;;;;;;;6.54;78.52;101849.35;1634193;85;20186;-76
2021/11/09 14:17:22;;;;;;;;;;;;;;;6.52;78.37;101863.04;1631799;86;20698;-78
2021/11/09 14:19:48;;;;;;;;;;;;;;;6.54;78.39;101871.66;1623361;86;20186;-81
2021/11/09 14:22:15;;;;;;;;;;;;;;;6.60;78.50;101864.75;1626363;86;20529;-77
2021/11/09 14:24:42;;;;;;;;;;;;;;;6.59;78.32;101863.08;1625986;86;22052;-76
2021/11/09 14:27:13;;;;;;;;;;;;;;;6.61;78.13;101866.45;1625240;86;20146;-78
2021/11/09 14:29:43;;;;;;;;;;;;;;;6.63;78.15;101859.33;1624580;86;20133;-78
2021/11/09 14:32:16;;;;;;;;;;;;;;;6.56;77.77;101860.63;1610554;87;20952;-80
2021/11/09 14:35:13;;;;;;;;;;;;;;;6.60;77.92;101860.37;1603635;87;20976;-79
2021/11/09 14:37:57;;;;;;;;;;;;;;;6.56;77.58;101861.94;1620461;86;20452;-83
2021/11/09 14:40:34;;;;;;;;;;;;;;;6.57;77.86;101874.11;1626943;86;20235;-79
2021/11/09 14:43:14;;;;;;;;;;;;;;;6.49;77.89;101884.20;1631634;86;20245;-78
2021/11/09 14:45:48;;;;;;;;;;;;;;;6.26;78.09;101885.02;1603037;87;20220;-79
2021/11/09 14:48:12;;;;;;;;;;;;;;;6.34;77.93;101884.15;1611642;87;20527;-79
2021/11/09 14:53:24;;;;;;;;;;;;;;;6.32;78.25;101883.37;1625639;86;20202;-80
2021/11/09 14:55:56;;;;;;;;;;;;;;;6.36;77.89;101878.81;1624508;86;20182;-79
2021/11/09 14:58:25;;;;;;;;;;;;;;;6.38;77.90;101875.62;1660105;84;20267;-78
2021/11/09 15:00:52;;;;;;;;;;;;;;;6.25;77.62;101879.41;1665327;84;20201;-78
2021/11/09 15:03:20;;;;;;;;;;;;;;;6.26;77.90;101869.28;1663501;84;22095;-80
2021/11/09 15:05:45;;;;;;;;;;;;;;;6.23;77.83;101873.38;1664725;84;20127;-79
2021/11/09 15:24:56;;;;;;;;;;;;;;;6.28;77.52;101879.24;1660697;84;20676;-79
2021/11/09 15:29:38;;;;;;;;;;;;;;;6.39;77.20;101876.86;1652737;85;20145;-77
2021/11/09 15:31:57;;;;;;;;;;;;;;;6.43;77.05;101878.39;1645148;86;20180;-79